sensor_id;sensor_type;location;lat;lon;timestamp;temperature;humidity
30467;DHT22;17258;52.560;13.046;2023-12-22T00:02:11;9.50;63.40
30467;DHT22;17258;52.560;13.046;2023-12-22T00:12:12;9.40;63.10
30467;DHT22;17258;52.560;13.046;2023-12-22T00:22:13;9.30;63.50
30467;DHT22;17258;52.560;13.046;2023-12-22T00:32:13;9.20;62.00
30467;DHT22;17258;52.560;13.046;2023-12-22T00:42:14;9.20;62.80
30467;DHT22;17258;52.560;13.046;2023-12-22T00:52:15;9.20;63.10
30467;DHT22;17258;52.560;13.046;2023-12-22T01:02:16;9.10;63.30
30467;DHT22;17258;52.560;13.046;2023-12-22T01:12:17;9.10;64.00
30467;DHT22;17258;52.560;13.046;2023-12-22T01:22:18;9.10;64.40
30467;DHT22;17258;52.560;13.046;2023-12-22T01:32:18;9.10;64.60
30467;DHT22;17258;52.560;13.046;2023-12-22T01:42:19;9.10;64.90
30467;DHT22;17258;52.560;13.046;2023-12-22T01:52:20;9.20;64.80
30467;DHT22;17258;52.560;13.046;2023-12-22T02:02:22;9.20;64.70
30467;DHT22;17258;52.560;13.046;2023-12-22T02:12:23;9.10;64.50
30467;DHT22;17258;52.560;13.046;2023-12-22T02:22:23;9.10;64.70
30467;DHT22;17258;52.560;13.046;2023-12-22T02:32:31;9.10;64.90
30467;DHT22;17258;52.560;13.046;2023-12-22T02:42:36;9.00;64.70
30467;DHT22;17258;52.560;13.046;2023-12-22T02:52:37;8.90;64.90
30467;DHT22;17258;52.560;13.046;2023-12-22T03:02:38;8.90;65.10
30467;DHT22;17258;52.560;13.046;2023-12-22T03:12:38;8.90;65.10
30467;DHT22;17258;52.560;13.046;2023-12-22T03:22:39;8.80;65.20
30467;DHT22;17258;52.560;13.046;2023-12-22T03:32:39;8.70;65.30
30467;DHT22;17258;52.560;13.046;2023-12-22T03:42:40;8.70;65.70
30467;DHT22;17258;52.560;13.046;2023-12-22T03:52:41;8.70;65.70
30467;DHT22;17258;52.560;13.046;2023-12-22T04:02:41;8.70;65.90
30467;DHT22;17258;52.560;13.046;2023-12-22T04:12:42;8.70;66.30
30467;DHT22;17258;52.560;13.046;2023-12-22T04:22:43;8.60;66.50
30467;DHT22;17258;52.560;13.046;2023-12-22T04:32:43;8.60;66.70
30467;DHT22;17258;52.560;13.046;2023-12-22T04:42:44;8.40;67.10
30467;DHT22;17258;52.560;13.046;2023-12-22T04:52:45;8.40;67.70
30467;DHT22;17258;52.560;13.046;2023-12-22T05:02:45;8.30;67.90
30467;DHT22;17258;52.560;13.046;2023-12-22T05:12:46;8.20;67.60
30467;DHT22;17258;52.560;13.046;2023-12-22T05:22:47;8.10;68.10
30467;DHT22;17258;52.560;13.046;2023-12-22T05:32:47;7.90;68.70
30467;DHT22;17258;52.560;13.046;2023-12-22T05:42:48;7.90;68.90
30467;DHT22;17258;52.560;13.046;2023-12-22T05:52:49;7.80;69.00
30467;DHT22;17258;52.560;13.046;2023-12-22T06:02:49;7.80;68.90
30467;DHT22;17258;52.560;13.046;2023-12-22T06:12:50;7.70;68.70
30467;DHT22;17258;52.560;13.046;2023-12-22T06:22:51;7.70;68.60
30467;DHT22;17258;52.560;13.046;2023-12-22T06:32:51;7.70;68.40
30467;DHT22;17258;52.560;13.046;2023-12-22T06:42:52;7.70;68.50
30467;DHT22;17258;52.560;13.046;2023-12-22T06:52:52;7.70;69.60
30467;DHT22;17258;52.560;13.046;2023-12-22T07:02:53;7.70;69.20
30467;DHT22;17258;52.560;13.046;2023-12-22T07:12:54;7.70;69.30
30467;DHT22;17258;52.560;13.046;2023-12-22T07:22:54;7.80;69.20
30467;DHT22;17258;52.560;13.046;2023-12-22T07:32:56;7.90;68.90
30467;DHT22;17258;52.560;13.046;2023-12-22T07:42:57;8.00;68.40
30467;DHT22;17258;52.560;13.046;2023-12-22T07:52:58;8.10;68.20
30467;DHT22;17258;52.560;13.046;2023-12-22T08:02:59;8.10;67.80
30467;DHT22;17258;52.560;13.046;2023-12-22T08:13:00;8.10;67.40
30467;DHT22;17258;52.560;13.046;2023-12-22T08:23:01;8.00;67.10
30467;DHT22;17258;52.560;13.046;2023-12-22T08:33:02;7.90;67.10
30467;DHT22;17258;52.560;13.046;2023-12-22T08:43:03;7.80;67.00
30467;DHT22;17258;52.560;13.046;2023-12-22T08:53:05;7.70;67.40
30467;DHT22;17258;52.560;13.046;2023-12-22T09:03:06;7.70;67.40
30467;DHT22;17258;52.560;13.046;2023-12-22T09:13:06;7.80;67.30
30467;DHT22;17258;52.560;13.046;2023-12-22T09:23:07;7.90;67.10
30467;DHT22;17258;52.560;13.046;2023-12-22T09:33:10;7.90;66.40
30467;DHT22;17258;52.560;13.046;2023-12-22T09:43:13;8.00;66.50
30467;DHT22;17258;52.560;13.046;2023-12-22T09:53:16;8.10;65.40
30467;DHT22;17258;52.560;13.046;2023-12-22T10:03:19;8.20;65.80
30467;DHT22;17258;52.560;13.046;2023-12-22T10:13:20;8.30;65.40
30467;DHT22;17258;52.560;13.046;2023-12-22T10:23:21;8.40;64.60
30467;DHT22;17258;52.560;13.046;2023-12-22T10:33:22;8.50;64.20
30467;DHT22;17258;52.560;13.046;2023-12-22T10:43:23;8.60;63.90
30467;DHT22;17258;52.560;13.046;2023-12-22T10:53:24;8.70;63.40
30467;DHT22;17258;52.560;13.046;2023-12-22T11:03:26;8.80;63.50
30467;DHT22;17258;52.560;13.046;2023-12-22T11:13:30;8.90;63.40
30467;DHT22;17258;52.560;13.046;2023-12-22T11:23:32;9.00;63.10
30467;DHT22;17258;52.560;13.046;2023-12-22T11:33:36;9.00;62.80
30467;DHT22;17258;52.560;13.046;2023-12-22T11:43:39;9.10;62.80
30467;DHT22;17258;52.560;13.046;2023-12-22T11:53:40;9.10;62.40
30467;DHT22;17258;52.560;13.046;2023-12-22T12:03:49;9.20;63.80
30467;DHT22;17258;52.560;13.046;2023-12-22T12:13:54;9.30;62.40
30467;DHT22;17258;52.560;13.046;2023-12-22T12:23:54;9.30;62.70
30467;DHT22;17258;52.560;13.046;2023-12-22T12:33:56;9.30;62.70
30467;DHT22;17258;52.560;13.046;2023-12-22T12:43:58;9.30;62.00
30467;DHT22;17258;52.560;13.046;2023-12-22T12:53:59;9.30;62.30
30467;DHT22;17258;52.560;13.046;2023-12-22T13:03:59;9.30;62.30
30467;DHT22;17258;52.560;13.046;2023-12-22T13:14:00;9.30;62.30
30467;DHT22;17258;52.560;13.046;2023-12-22T13:24:19;9.40;62.20
30467;DHT22;17258;52.560;13.046;2023-12-22T13:34:20;9.50;61.10
30467;DHT22;17258;52.560;13.046;2023-12-22T13:44:20;9.50;61.50
30467;DHT22;17258;52.560;13.046;2023-12-22T13:54:32;9.60;61.70
30467;DHT22;17258;52.560;13.046;2023-12-22T14:04:33;9.50;62.10
30467;DHT22;17258;52.560;13.046;2023-12-22T14:14:34;9.40;62.20
30467;DHT22;17258;52.560;13.046;2023-12-22T14:24:35;9.30;61.80
30467;DHT22;17258;52.560;13.046;2023-12-22T14:34:35;9.00;61.60
30467;DHT22;17258;52.560;13.046;2023-12-22T14:44:37;8.90;62.00
30467;DHT22;17258;52.560;13.046;2023-12-22T14:54:38;8.70;62.00
30467;DHT22;17258;52.560;13.046;2023-12-22T15:04:39;8.70;62.30
30467;DHT22;17258;52.560;13.046;2023-12-22T15:14:44;8.60;62.60
30467;DHT22;17258;52.560;13.046;2023-12-22T15:24:45;8.60;63.00
30467;DHT22;17258;52.560;13.046;2023-12-22T15:34:46;8.60;63.40
30467;DHT22;17258;52.560;13.046;2023-12-22T15:44:47;8.70;63.60
30467;DHT22;17258;52.560;13.046;2023-12-22T15:54:48;8.70;63.70
30467;DHT22;17258;52.560;13.046;2023-12-22T16:04:48;8.70;63.80
30467;DHT22;17258;52.560;13.046;2023-12-22T16:14:49;8.70;63.70
30467;DHT22;17258;52.560;13.046;2023-12-22T16:24:50;8.60;63.50
30467;DHT22;17258;52.560;13.046;2023-12-22T16:34:50;8.60;63.40
30467;DHT22;17258;52.560;13.046;2023-12-22T16:44:51;8.70;63.70
30467;DHT22;17258;52.560;13.046;2023-12-22T16:54:51;8.70;63.60
30467;DHT22;17258;52.560;13.046;2023-12-22T17:04:53;8.70;63.80
30467;DHT22;17258;52.560;13.046;2023-12-22T17:14:53;8.70;63.70
30467;DHT22;17258;52.560;13.046;2023-12-22T17:24:54;8.70;63.90
30467;DHT22;17258;52.560;13.046;2023-12-22T17:34:55;8.70;63.90
30467;DHT22;17258;52.560;13.046;2023-12-22T17:44:55;8.70;63.70
30467;DHT22;17258;52.560;13.046;2023-12-22T17:54:56;8.70;63.80
30467;DHT22;17258;52.560;13.046;2023-12-22T18:04:57;8.60;63.80
30467;DHT22;17258;52.560;13.046;2023-12-22T18:14:57;8.60;63.90
30467;DHT22;17258;52.560;13.046;2023-12-22T18:24:58;8.70;64.10
30467;DHT22;17258;52.560;13.046;2023-12-22T18:34:59;8.70;64.20
30467;DHT22;17258;52.560;13.046;2023-12-22T18:45:00;8.70;64.20
30467;DHT22;17258;52.560;13.046;2023-12-22T18:55:01;8.80;64.10
30467;DHT22;17258;52.560;13.046;2023-12-22T19:05:02;8.80;64.20
30467;DHT22;17258;52.560;13.046;2023-12-22T19:15:03;8.90;64.30
30467;DHT22;17258;52.560;13.046;2023-12-22T19:25:08;8.90;64.20
30467;DHT22;17258;52.560;13.046;2023-12-22T19:35:08;8.90;64.40
30467;DHT22;17258;52.560;13.046;2023-12-22T19:45:09;9.00;64.10
30467;DHT22;17258;52.560;13.046;2023-12-22T19:55:11;9.00;63.00
30467;DHT22;17258;52.560;13.046;2023-12-22T20:05:12;9.00;62.50
30467;DHT22;17258;52.560;13.046;2023-12-22T20:15:13;9.00;62.30
30467;DHT22;17258;52.560;13.046;2023-12-22T20:25:14;8.90;62.70
30467;DHT22;17258;52.560;13.046;2023-12-22T20:35:15;8.90;63.20
30467;DHT22;17258;52.560;13.046;2023-12-22T20:45:15;8.90;63.80
30467;DHT22;17258;52.560;13.046;2023-12-22T20:55:16;8.90;64.20
30467;DHT22;17258;52.560;13.046;2023-12-22T21:05:18;8.80;64.50
30467;DHT22;17258;52.560;13.046;2023-12-22T21:15:18;8.70;64.80
30467;DHT22;17258;52.560;13.046;2023-12-22T21:25:19;8.60;64.90
30467;DHT22;17258;52.560;13.046;2023-12-22T21:35:20;8.40;63.30
30467;DHT22;17258;52.560;13.046;2023-12-22T21:45:21;8.10;63.00
30467;DHT22;17258;52.560;13.046;2023-12-22T21:55:22;7.70;63.00
30467;DHT22;17258;52.560;13.046;2023-12-22T22:05:22;7.40;63.40
30467;DHT22;17258;52.560;13.046;2023-12-22T22:15:23;7.10;64.90
30467;DHT22;17258;52.560;13.046;2023-12-22T22:25:25;6.80;64.90
30467;DHT22;17258;52.560;13.046;2023-12-22T22:35:26;6.60;65.20
30467;DHT22;17258;52.560;13.046;2023-12-22T22:45:27;6.50;65.50
30467;DHT22;17258;52.560;13.046;2023-12-22T22:55:27;6.40;65.50
30467;DHT22;17258;52.560;13.046;2023-12-22T23:05:29;6.40;65.90
30467;DHT22;17258;52.560;13.046;2023-12-22T23:15:30;6.30;66.80
30467;DHT22;17258;52.560;13.046;2023-12-22T23:25:31;6.30;66.90
30467;DHT22;17258;52.560;13.046;2023-12-22T23:35:31;6.30;67.20
30467;DHT22;17258;52.560;13.046;2023-12-22T23:45:32;6.30;67.40
30467;DHT22;17258;52.560;13.046;2023-12-22T23:55:33;6.20;67.40
